Latest Weather Observations for Wagga Wagga

IDN60801

Issued at 2:35 am EDT Tuesday 25 November 2014 (issued every 30 minutes, with the page automatically refreshed every 10 minutes)

About weather observations | Map of weather stations | Latest weather observations for NSW | Other Formats
Station Details ID: 072150 Name: WAGGA WAGGA AMO Lat: -35.16 Lon: 147.46 Height: 212.0 m
Data from the previous 72 hours. | See also: Recent months at Wagga Wagga
Date/Time
EDT
Temp
°C
App
Temp
°C
Dew
Point
Rel
Hum
%
Delta-T
°C
Wind Press
QNH
hPa
Press
MSL
hPa
Rain
since 9 am
mm
Dir
 
Spd
km/h
Gust
km/h
Spd
kts
Gust
kts
25/02:00am 15.8 11.0 12.9 83 1.6 WSW 30 39 16 21 1012.1 1011.6 12.2
25/01:30am 17.3 13.0 14.4 83 1.7 WSW 30 37 16 20 1011.3 1010.7 12.2
25/01:13am 18.8 15.7 16.5 86 1.4 WSW 28 41 15 22 1011.2 1010.6 12.2
25/01:11am 18.8 15.1 17.0 89 1.1 WSW 32 41 17 22 1011.2 1010.6 12.2
25/01:00am 18.5 17.9 17.5 94 0.6 W 17 22 9 12 1011.2 1010.6 12.2
25/12:30am 18.3 19.3 17.7 96 0.4 W 9 13 5 7 1011.3 1010.7 12.2
25/12:24am 18.3 19.3 17.7 96 0.4 W 9 13 5 7 1011.3 1010.7 12.2
25/12:12am 18.3 19.3 17.7 96 0.4 W 9 11 5 6 1011.2 1010.6 12.2
25/12:00am 18.4 19.7 17.6 95 0.5 W 7 9 4 5 1011.1 1010.5 12.2
 
Date/Time
EDT
Temp
°C
App
Temp
°C
Dew
Point
Rel
Hum
%
Delta-T
°C
Wind Press
QNH
hPa
Press
MSL
hPa
Rain
since 9 am
mm
Dir
 
Spd
km/h
Gust
km/h
Spd
kts
Gust
kts
24/11:57pm 18.4 20.0 17.8 96 0.4 W 6 9 3 5 1011.1 1010.5 12.2
24/11:30pm 18.3 19.8 17.7 96 0.4 W 6 7 3 4 1011.2 1010.6 12.2
24/11:00pm 18.4 20.0 17.8 96 0.4 E 6 7 3 4 1011.3 1010.7 12.2
24/10:30pm 18.2 19.4 17.4 95 0.5 NNE 7 9 4 5 1010.6 1010.0 12.2
24/10:00pm 17.9 17.9 17.2 96 0.4 N 13 17 7 9 1010.8 1010.2 12.0
24/09:30pm 17.9 18.0 17.4 97 0.3 NNE 13 19 7 10 1010.9 1010.3 12.0
24/09:11pm 18.0 18.4 17.3 96 0.4 N 11 13 6 7 1011.0 1010.4 11.6
24/09:00pm 18.3 18.3 17.2 93 0.7 W 13 20 7 11 1011.0 1010.4 11.2
24/08:38pm 19.2 15.0 17.2 88 1.2 WSW 35 61 19 33 1011.9 1011.4 6.0
24/08:30pm 22.1 22.7 17.8 76 2.7 SSE 11 13 6 7 1010.0 1009.4 4.6
24/08:00pm 22.2 21.7 19.2 83 1.9 SW 20 24 11 13 1009.4 1008.8 4.6
24/07:30pm 22.4 23.6 19.0 81 2.2 ENE 11 15 6 8 1008.0 1007.5 4.6
24/07:00pm 22.8 23.4 18.7 77 2.6 ENE 13 17 7 9 1007.7 1007.2 4.6
24/06:30pm 23.0 23.5 18.4 75 2.9 ENE 13 17 7 9 1007.3 1006.7 4.6
24/06:00pm 22.6 23.1 18.3 76 2.7 ENE 13 19 7 10 1007.3 1006.7 4.6
24/05:30pm 22.7 22.9 18.6 77 2.6 E 15 20 8 11 1007.4 1006.8 4.6
24/05:00pm 22.4 21.6 18.1 76 2.7 ENE 19 26 10 14 1007.6 1007.1 4.6
24/04:30pm 22.6 22.2 19.3 81 2.1 ENE 20 26 11 14 1008.2 1007.7 4.6
24/04:00pm 22.2 22.4 19.4 84 1.8 ENE 17 24 9 13 1009.5 1008.9 4.6
24/03:30pm 21.4 20.7 19.4 88 1.3 ENE 22 32 12 17 1009.4 1008.8 4.6
24/03:00pm 21.2 20.0 19.3 89 1.2 E 24 28 13 15 1010.0 1009.4 4.6
24/02:30pm 21.0 19.9 19.4 90 1.0 E 24 28 13 15 1010.5 1009.9 4.6
24/02:00pm 21.3 23.0 19.3 88 1.3 ESE 9 17 5 9 1012.0 1011.5 4.0
24/01:30pm 21.3 23.3 19.1 87 1.4 S 7 11 4 6 1012.6 1012.1 3.8
24/01:00pm 21.2 23.8 18.3 83 1.8 S 2 9 1 5 1012.9 1012.4 3.4
24/12:30pm 21.4 22.6 18.2 82 2.0 WSW 9 15 5 8 1013.5 1013.0 2.8
24/12:00pm 21.5 23.1 19.1 86 1.5 SSW 9 13 5 7 1013.4 1012.9 2.6
24/11:30am 21.2 21.8 18.5 84 1.7 S 13 19 7 10 1012.6 1012.1 2.4
24/11:00am 21.3 22.2 18.4 83 1.8 SSE 11 15 6 8 1013.0 1012.5 2.0
24/10:30am 21.1 22.5 18.6 86 1.6 ESE 9 11 5 6 1013.2 1012.7 1.8
24/10:00am 20.9 23.0 19.0 89 1.2 E 6 9 3 5 1013.6 1013.1 1.2
24/09:30am 21.0 22.5 19.0 88 1.3 S 9 11 5 6 1013.7 1013.2 0.6
24/09:00am 20.6 21.2 18.5 88 1.3 SSW 13 19 7 10 1013.1 1012.6 5.2
24/08:30am 20.8 20.9 17.4 81 2.1 N 13 19 7 10 1013.2 1012.7 5.0
24/08:00am 20.9 21.3 17.2 79 2.3 N 11 15 6 8 1013.6 1013.1 4.2
24/07:30am 20.8 20.7 16.9 78 2.4 N 13 15 7 8 1013.7 1013.2 4.2
24/07:00am 20.4 19.0 17.0 81 2.1 N 20 28 11 15 1013.8 1013.3 4.2
24/06:30am 19.2 17.1 17.2 88 1.2 NNE 24 33 13 18 1013.9 1013.4 3.6
24/06:00am 19.9 19.8 17.0 83 1.8 N 13 17 7 9 1014.3 1013.7 3.2
24/05:30am 20.2 19.8 16.1 77 2.5 NNE 13 19 7 10 1013.7 1013.2 2.2
24/05:00am 20.1 18.3 16.1 78 2.4 NE 20 28 11 15 1012.9 1012.4 1.2
24/04:30am 21.0 18.0 14.8 67 3.7 NE 24 32 13 17 1012.9 1012.4 0.6
24/04:00am 21.8 20.7 14.2 62 4.5 ENE 13 17 7 9 1013.4 1012.9 0.2
24/03:30am 22.4 20.9 14.1 59 4.9 S 15 24 8 13 1013.2 1012.7 0.0
24/03:00am 26.1 22.5 10.5 37 8.8 WSW 20 28 11 15 1013.2 1012.7 0.0
24/02:30am 25.7 24.3 10.9 39 8.4 ESE 9 11 5 6 1012.6 1012.1 0.0
24/02:00am 25.1 25.1 11.2 41 7.9 W 2 7 1 4 1012.9 1012.4 0.0
24/01:30am 25.6 24.2 11.0 40 8.3 W 9 11 5 6 1012.6 1012.1 0.0
24/01:00am 27.0 26.0 10.2 35 9.5 N 6 7 3 4 1012.4 1011.9 0.0
24/12:30am 27.0 25.3 9.7 33 9.7 E 9 11 5 6 1012.4 1011.9 0.0
24/12:00am 27.2 24.4 8.7 31 10.2 ESE 13 15 7 8 1012.5 1012.0 0.0
 
Date/Time
EDT
Temp
°C
App
Temp
°C
Dew
Point
Rel
Hum
%
Delta-T
°C
Wind Press
QNH
hPa
Press
MSL
hPa
Rain
since 9 am
mm
Dir
 
Spd
km/h
Gust
km/h
Spd
kts
Gust
kts
23/11:30pm 26.1 23.9 9.3 34 9.3 S 11 13 6 7 1013.4 1012.9 0.0
23/11:00pm 28.1 26.4 7.7 27 11.1 SSW 6 7 3 4 1013.1 1012.6 0.0
23/10:30pm 29.1 26.0 7.1 25 11.9 WSW 13 15 7 8 1013.8 1013.3 0.0
23/10:00pm 30.0 24.5 6.1 22 12.8 SW 24 32 13 17 1013.2 1012.7 0.0
23/09:30pm 30.5 24.1 7.0 23 12.8 SW 30 41 16 22 1012.3 1011.8 0.0
23/09:00pm 31.0 26.5 8.5 24 12.6 SW 22 32 12 17 1011.6 1011.1 0.0
23/08:30pm 31.3 27.4 8.7 24 12.7 SW 19 28 10 15 1011.2 1010.6 0.0
23/08:00pm 32.3 26.6 8.3 22 13.5 SW 28 37 15 20 1010.4 1009.8 0.0
23/07:30pm 32.9 26.3 7.9 21 14.0 SW 32 43 17 23 1009.9 1009.3 0.0
23/07:00pm 33.8 26.4 6.6 18 15.0 SW 35 46 19 25 1009.1 1008.6 0.0
23/06:39pm 34.7 27.9 5.1 16 16.0 SW 30 48 16 26 1009.0 1008.5 0.0
23/06:30pm 35.3 27.8 4.7 15 16.5 WSW 33 41 18 22 1008.9 1008.4 0.0
23/06:25pm 35.7 27.1 4.9 15 16.7 SSW 39 44 21 24 1008.7 1008.2 0.0
23/06:00pm 37.0 29.8 5.0 14 17.5 WSW 32 44 17 24 1008.4 1007.9 0.0
23/05:49pm 37.3 30.9 5.3 14 17.6 WSW 28 48 15 26 1008.3 1007.8 0.0
23/05:30pm 38.2 30.8 4.8 13 18.3 WSW 33 44 18 24 1008.3 1007.8 0.0
23/05:03pm 38.6 31.1 4.7 12 18.6 SW 33 52 18 28 1008.0 1007.5 0.0
23/05:00pm 38.6 30.8 4.7 12 18.6 WSW 35 52 19 28 1008.0 1007.5 0.0
23/04:58pm 38.6 29.6 4.7 12 18.6 WSW 41 52 22 28 1008.0 1007.5 0.0
23/04:56pm 38.6 31.7 4.7 12 18.6 W 30 48 16 26 1008.0 1007.5 0.0
23/04:30pm 38.7 33.9 5.6 13 18.4 WSW 20 32 11 17 1008.0 1007.5 0.0
23/04:00pm 38.3 32.3 5.4 13 18.2 W 26 35 14 19 1008.2 1007.7 0.0
23/03:30pm 38.8 33.4 4.4 12 18.8 WSW 22 35 12 19 1008.3 1007.8 0.0
23/03:00pm 38.1 31.7 3.0 11 18.7 W 26 39 14 21 1008.5 1008.0 0.0
23/02:30pm 38.8 32.3 2.8 11 19.2 W 26 41 14 22 1008.7 1008.2 0.0
23/02:00pm 38.0 31.7 3.6 12 18.5 WNW 26 41 14 22 1008.8 1008.3 0.0
23/01:30pm 38.3 32.2 4.7 12 18.4 WNW 26 37 14 20 1008.8 1008.3 0.0
23/01:00pm 37.0 30.5 4.6 13 17.6 WNW 28 33 15 18 1009.3 1008.7 0.0
23/12:30pm 37.0 32.6 4.6 13 17.6 WNW 17 32 9 17 1009.3 1008.7 0.0
23/12:00pm 36.3 31.3 4.8 14 17.1 NW 20 30 11 16 1009.6 1009.0 0.0
23/11:30am 35.4 32.8 6.3 16 16.1 WNW 9 13 5 7 1009.9 1009.3 0.0
23/11:00am 33.3 31.2 6.8 19 14.6 ENE 7 13 4 7 1010.1 1009.5 0.0
23/10:30am 32.9 30.2 7.3 20 14.2 ENE 11 19 6 10 1010.1 1009.5 0.0
23/10:00am 31.0 27.8 6.8 22 13.2 E 13 20 7 11 1010.3 1009.7 0.0
23/09:30am 29.8 25.4 6.4 23 12.6 E 19 24 10 13 1010.3 1009.7 0.0
23/09:00am 28.2 23.5 6.2 24 11.7 E 20 28 11 15 1010.4 1009.8 0.0
23/08:30am 27.0 22.4 6.4 27 10.9 E 20 30 11 16 1010.2 1009.6 0.0
23/08:00am 24.5 20.7 7.4 33 9.1 E 17 19 9 10 1010.1 1009.5 0.0
23/07:30am 22.7 19.0 7.8 38 7.9 E 17 19 9 10 1009.9 1009.3 0.0
23/07:00am 21.6 18.4 8.5 43 7.0 E 15 19 8 10 1009.9 1009.3 0.0
23/06:30am 20.7 17.9 8.4 45 6.5 E 13 17 7 9 1009.8 1009.2 0.0
23/06:00am 19.6 16.3 8.1 47 6.0 E 15 17 8 9 1009.6 1009.0 0.0
23/05:30am 20.2 16.6 8.2 46 6.3 ESE 17 19 9 10 1010.0 1009.4 0.0
23/05:00am 19.5 16.9 9.2 51 5.5 ESE 13 15 7 8 1010.3 1009.7 0.0
23/04:30am 20.7 17.6 8.7 46 6.4 SE 15 17 8 9 1010.1 1009.5 0.0
23/04:00am 19.7 16.6 8.7 49 5.8 SE 15 17 8 9 1009.9 1009.3 0.0
23/03:30am 19.3 18.3 10.3 56 4.9 SE 6 9 3 5 1010.0 1009.4 0.0
23/03:00am 19.7 18.4 10.1 54 5.2 E 7 11 4 6 1010.2 1009.6 0.0
23/02:30am 21.0 20.8 10.5 51 5.8 E 2 7 1 4 1010.8 1010.2 0.0
23/02:00am 21.2 19.5 9.8 48 6.2 E 9 17 5 9 1010.9 1010.3 0.0
23/01:30am 22.5 21.2 9.2 42 7.2 NNW 6 11 3 6 1011.3 1010.7 0.0
23/01:00am 23.7 20.8 8.0 36 8.4 SSE 13 17 7 9 1011.0 1010.4 0.0
23/12:30am 23.5 20.5 7.9 36 8.3 SE 13 17 7 9 1010.9 1010.3 0.0
23/12:00am 23.4 20.7 9.0 40 7.8 SSE 13 17 7 9 1011.6 1011.1 0.0
 
Date/Time
EDT
Temp
°C
App
Temp
°C
Dew
Point
Rel
Hum
%
Delta-T
°C
Wind Press
QNH
hPa
Press
MSL
hPa
Rain
since 9 am
mm
Dir
 
Spd
km/h
Gust
km/h
Spd
kts
Gust
kts
22/11:30pm 23.7 21.8 7.7 36 8.5 ENE 7 9 4 5 1011.6 1011.1 0.0
22/11:00pm 24.8 22.0 7.0 32 9.4 S 11 13 6 7 1012.0 1011.5 0.0
22/10:30pm 24.7 21.4 6.6 31 9.5 SSW 13 15 7 8 1012.1 1011.6 0.0
22/10:00pm 24.0 20.6 5.7 30 9.4 SW 13 15 7 8 1012.0 1011.5 0.0
22/09:30pm 24.5 22.1 6.8 32 9.3 S 9 9 5 5 1011.6 1011.1 0.0
22/09:00pm 24.4 21.7 7.2 33 9.1 SSW 11 13 6 7 1011.3 1010.7 0.0
22/08:30pm 26.6 24.3 4.8 24 11.2 S 6 7 3 4 1010.7 1010.1 0.0
22/08:00pm 28.6 26.1 3.7 20 12.7 SW 6 11 3 6 1010.7 1010.1 0.0
22/07:30pm 29.5 25.5 3.1 18 13.4 WSW 13 13 7 7 1011.1 1010.5 0.0
22/07:00pm 30.5 26.8 2.4 16 14.2 W 11 13 6 7 1010.4 1009.8 0.0
22/06:30pm 31.6 26.7 -0.7 12 15.6 W 15 20 8 11 1009.8 1009.2 0.0
22/06:00pm 32.1 27.4 0.6 13 15.6 WSW 15 20 8 11 1009.6 1009.0 0.0
22/05:30pm 32.9 27.2 -0.4 12 16.3 WSW 19 28 10 15 1009.4 1008.8 0.0
22/05:00pm 33.4 26.9 0.0 12 16.5 W 24 33 13 18 1009.7 1009.1 0.0
22/04:30pm 32.7 27.1 -0.1 12 16.1 WNW 19 30 10 16 1010.2 1009.6 0.0
22/04:00pm 33.1 26.6 0.5 12 16.2 WNW 24 32 13 17 1010.2 1009.6 0.0
22/03:30pm 33.3 26.8 0.6 12 16.3 WNW 24 35 13 19 1010.4 1009.8 0.0
22/03:00pm 33.3 27.6 0.6 12 16.3 WNW 20 30 11 16 1010.8 1010.2 0.0
22/02:30pm 33.3 27.7 0.2 12 16.4 WSW 19 37 10 20 1010.9 1010.3 0.0
22/02:00pm 33.1 28.7 2.6 14 15.7 NW 15 26 8 14 1011.0 1010.4 0.0
22/01:30pm 32.5 29.2 2.3 14 15.4 NNW 9 15 5 8 1011.2 1010.6 0.0
22/01:00pm 32.0 28.9 5.5 19 14.2 N 11 20 6 11 1011.4 1010.8 0.0
22/12:30pm 31.8 28.8 5.8 19 14.0 W 11 19 6 10 1011.6 1011.1 0.0
22/12:00pm 31.1 28.6 6.6 21 13.3 WNW 9 15 5 8 1011.7 1011.2 0.0
22/11:30am 29.4 26.6 7.1 24 12.1 W 11 15 6 8 1012.0 1011.5 0.0
22/11:00am 28.5 26.3 9.2 30 10.8 NNE 11 15 6 8 1012.3 1011.8 0.0
22/10:30am 27.4 25.2 9.5 32 10.0 ENE 11 17 6 9 1012.6 1012.1 0.0
22/10:00am 26.3 24.6 11.3 39 8.6 ENE 11 17 6 9 1012.9 1012.4 0.0
22/09:30am 24.7 23.0 11.1 42 7.7 ENE 11 17 6 9 1013.2 1012.7 0.0
22/09:00am 23.2 21.1 11.3 47 6.7 ENE 13 17 7 9 1013.0 1012.5 0.0
22/08:30am 21.5 19.5 10.2 48 6.2 E 11 15 6 8 1013.1 1012.6 0.0
22/08:00am 19.6 17.4 9.5 52 5.4 E 11 15 6 8 1013.1 1012.6 0.0
22/07:30am 18.5 16.1 8.8 53 5.1 E 11 13 6 7 1012.9 1012.4 0.0
22/07:00am 17.4 15.2 9.2 58 4.3 ESE 11 13 6 7 1012.7 1012.2 0.0
22/06:30am 15.1 12.6 9.6 69 2.9 SE 13 15 7 8 1012.2 1011.7 0.0
22/06:00am 14.5 11.8 9.1 70 2.8 ESE 13 13 7 7 1012.0 1011.5 0.0
22/05:30am 13.5 11.1 8.6 72 2.5 ESE 11 13 6 7 1011.7 1011.2 0.0
22/05:00am 14.2 12.3 9.2 72 2.6 E 9 11 5 6 1011.5 1011.0 0.0
22/04:30am 14.4 14.3 9.4 72 2.6 CALM 0 9 0 5 1011.5 1011.0 0.0
22/04:00am 12.8 11.5 9.3 79 1.8 SSW 6 9 3 5 1011.1 1010.5 0.0
22/03:30am 14.9 13.5 9.5 70 2.8 SSW 7 9 4 5 1010.9 1010.3 0.0
22/03:00am 15.8 14.6 9.7 67 3.2 SW 6 7 3 4 1011.1 1010.5 0.0

Other Formats:

Comma delimited format used in spreadsheet applications
http://www.bom.gov.au/fwo/IDN60801/IDN60801.94910.axf

JavaScript Object Notation format (JSON) in row-major order
http://www.bom.gov.au/fwo/IDN60801/IDN60801.94910.json